createdAt,value
2019-01-14T00:00:43.691Z,99964.45
2019-01-14T00:03:12.985Z,99980.75
2019-01-14T00:05:42.288Z,99976.94
2019-01-14T00:08:11.532Z,99976.58
2019-01-14T00:10:40.774Z,99970.09
2019-01-14T00:13:10.014Z,99974.28
2019-01-14T00:15:39.233Z,99974.48
2019-01-14T00:18:08.468Z,99984.66
2019-01-14T00:20:37.703Z,100001.19
2019-01-14T00:23:07.939Z,100012.50
2019-01-14T00:25:37.161Z,100015.19
2019-01-14T00:28:06.414Z,100016.10
2019-01-14T00:30:35.643Z,100012.12
2019-01-14T00:33:04.885Z,100026.16
2019-01-14T00:35:34.113Z,100023.63
2019-01-14T00:38:03.334Z,100031.70
2019-01-14T00:40:32.577Z,100029.92
2019-01-14T00:43:02.185Z,100037.33
2019-01-14T00:45:31.443Z,100041.50
2019-01-14T00:48:00.697Z,100044.79
2019-01-14T00:50:29.952Z,100048.95
2019-01-14T00:52:59.247Z,100040.88
2019-01-14T00:55:28.509Z,100045.55
2019-01-14T00:57:57.762Z,100037.41
2019-01-14T01:00:32.891Z,100048.59
2019-01-14T01:03:02.128Z,100047.56
2019-01-14T01:05:31.439Z,100048.81
2019-01-14T01:08:00.637Z,100049.06
2019-01-14T01:10:29.894Z,100055.52
2019-01-14T01:12:59.139Z,100053.48
2019-01-14T01:15:28.394Z,100061.16
2019-01-14T01:17:57.725Z,100063.87
2019-01-14T01:20:27.041Z,100067.09
2019-01-14T01:22:56.312Z,100079.37
2019-01-14T01:25:25.568Z,100086.30
2019-01-14T01:27:54.795Z,100081.67
2019-01-14T01:30:24.042Z,100080.87
2019-01-14T01:32:53.290Z,100091.17
2019-01-14T01:35:22.521Z,100087.75
2019-01-14T01:37:51.843Z,100088.19
2019-01-14T01:40:23.158Z,100095.91
2019-01-14T01:42:52.423Z,100097.73
2019-01-14T01:45:21.752Z,100097.47
2019-01-14T01:47:51.009Z,100100.55
2019-01-14T01:50:20.359Z,100108.27
2019-01-14T01:52:49.705Z,100109.54
2019-01-14T01:55:18.934Z,100117.60
2019-01-14T01:57:49.148Z,100124.25
2019-01-14T02:00:19.840Z,100130.52
2019-01-14T02:02:50.133Z,100135.42
2019-01-14T02:05:19.438Z,100145.09
2019-01-14T02:07:48.763Z,100153.28
2019-01-14T02:10:19.653Z,100145.66
2019-01-14T02:12:48.903Z,100158.72
2019-01-14T02:15:19.903Z,100176.33
2019-01-14T02:17:49.159Z,100185.36
2019-01-14T02:20:19.175Z,100169.64
2019-01-14T02:22:49.413Z,100166.63
2019-01-14T02:25:18.823Z,100173.48
2019-01-14T02:27:48.077Z,100162.70
2019-01-14T02:30:19.167Z,100167.05
2019-01-14T02:32:48.484Z,100165.84
2019-01-14T02:35:17.816Z,100167.97
2019-01-14T02:37:47.154Z,100179.85
2019-01-14T02:40:18.429Z,100180.88
2019-01-14T02:42:47.791Z,100180.72
2019-01-14T02:45:18.216Z,100191.28
2019-01-14T02:47:51.538Z,100193.06
2019-01-14T02:50:20.776Z,100191.37
2019-01-14T02:52:50.031Z,100199.34
2019-01-14T02:55:19.330Z,100204.81
2019-01-14T02:57:48.575Z,100204.47
2019-01-14T03:00:23.141Z,100198.53
2019-01-14T03:02:52.393Z,100205.45
2019-01-14T03:05:21.623Z,100205.72
2019-01-14T03:07:50.931Z,100216.36
2019-01-14T03:10:22.352Z,100209.89
2019-01-14T03:12:51.675Z,100213.59
2019-01-14T03:15:20.973Z,100218.25
2019-01-14T03:17:50.218Z,100225.87
2019-01-14T03:20:19.545Z,100222.88
2019-01-14T03:22:48.802Z,100223.80
2019-01-14T03:25:18.301Z,100221.27
2019-01-14T03:27:47.579Z,100221.82
2019-01-14T03:30:18.071Z,100226.45
2019-01-14T03:32:47.317Z,100222.67
2019-01-14T03:35:16.585Z,100227.13
2019-01-14T03:37:45.904Z,100235.97
2019-01-14T03:40:16.224Z,100243.70
2019-01-14T03:42:45.461Z,100244.31
2019-01-14T03:45:14.796Z,100253.69
2019-01-14T03:47:44.058Z,100252.59
2019-01-14T03:50:15.848Z,100252.96
2019-01-14T03:52:45.116Z,100250.84
2019-01-14T03:55:14.433Z,100250.67
2019-01-14T03:57:43.866Z,100254.56
2019-01-14T04:00:15.925Z,100258.69
2019-01-14T04:02:45.335Z,100265.95
2019-01-14T04:05:14.689Z,100256.81
2019-01-14T04:07:43.967Z,100263.42
2019-01-14T04:10:15.000Z,100272.86
2019-01-14T04:12:44.402Z,100277.23
2019-01-14T04:15:15.694Z,100274.60
2019-01-14T04:17:44.911Z,100278.62
2019-01-14T04:20:18.165Z,100287.18
2019-01-14T04:22:47.690Z,100293.24
2019-01-14T04:25:16.985Z,100295.07
2019-01-14T04:27:46.281Z,100302.88
2019-01-14T04:30:18.165Z,100295.84
2019-01-14T04:32:48.470Z,100292.67
2019-01-14T04:35:18.100Z,100292.32
2019-01-14T04:37:48.334Z,100291.29
2019-01-14T04:40:17.847Z,100299.59
2019-01-14T04:42:47.125Z,100300.52
2019-01-14T04:45:16.525Z,100297.75
2019-01-14T04:47:45.791Z,100295.63
2019-01-14T04:50:20.411Z,100295.53
2019-01-14T04:52:49.743Z,100304.91
2019-01-14T04:55:19.104Z,100310.20
2019-01-14T04:57:48.358Z,100308.73
2019-01-14T05:00:20.883Z,100307.70
2019-01-14T05:02:50.126Z,100313.73
2019-01-14T05:05:19.608Z,100324.85
2019-01-14T05:07:49.171Z,100338.23
2019-01-14T05:10:20.148Z,100337.61
2019-01-14T05:12:49.447Z,100331.39
2019-01-14T05:15:18.699Z,100337.89
2019-01-14T05:17:47.953Z,100318.59
2019-01-14T05:20:19.759Z,100315.66
2019-01-14T05:22:49.025Z,100325.70
2019-01-14T05:25:18.257Z,100332.10
2019-01-14T05:27:47.497Z,100331.14
2019-01-14T05:30:19.404Z,100338.66
2019-01-14T05:32:48.634Z,100335.00
2019-01-14T05:35:18.037Z,100342.00
2019-01-14T05:37:47.554Z,100348.31
2019-01-14T05:40:19.635Z,100350.77
2019-01-14T05:42:49.904Z,100360.36
2019-01-14T05:45:19.387Z,100370.62
2019-01-14T05:47:48.806Z,100376.16
2019-01-14T05:50:18.067Z,100376.48
2019-01-14T05:52:47.375Z,100380.90
2019-01-14T05:55:16.914Z,100377.01
2019-01-14T05:57:46.114Z,100380.49
2019-01-14T06:00:22.675Z,100391.75
2019-01-14T06:02:51.981Z,100392.25
2019-01-14T06:05:21.223Z,100394.71
2019-01-14T06:07:51.394Z,100390.17
2019-01-14T06:10:20.623Z,100391.52
2019-01-14T06:12:49.908Z,100394.13
2019-01-14T06:15:19.224Z,100396.87
2019-01-14T06:17:48.561Z,100412.46
2019-01-14T06:20:20.563Z,100427.66
2019-01-14T06:22:49.805Z,100430.59
2019-01-14T06:25:19.118Z,100436.05
2019-01-14T06:27:48.382Z,100438.16
2019-01-14T06:30:27.034Z,100427.83
2019-01-14T06:32:56.276Z,100439.31
2019-01-14T06:35:25.599Z,100441.36
2019-01-14T06:37:54.862Z,100441.17
2019-01-14T06:40:24.251Z,100448.02
2019-01-14T06:42:53.518Z,100459.69
2019-01-14T06:45:22.775Z,100466.07
2019-01-14T06:47:52.064Z,100470.05
2019-01-14T06:50:21.268Z,100471.21
2019-01-14T06:52:50.539Z,100483.05
2019-01-14T06:55:20.255Z,100484.29
2019-01-14T06:57:49.498Z,100493.44
2019-01-14T07:00:21.391Z,100503.00
2019-01-14T07:02:50.695Z,100506.81
2019-01-14T07:05:20.114Z,100504.38
2019-01-14T07:07:49.529Z,100518.97
2019-01-14T07:10:22.670Z,100515.11
2019-01-14T07:12:51.899Z,100527.45
2019-01-14T07:15:21.220Z,100521.63
2019-01-14T07:17:50.488Z,100538.27
2019-01-14T07:20:20.031Z,100535.32
2019-01-14T07:22:49.320Z,100541.85
2019-01-14T07:25:18.580Z,100547.84
2019-01-14T07:27:49.107Z,100548.65
2019-01-14T07:30:22.933Z,100543.02
2019-01-14T07:32:52.156Z,100558.11
2019-01-14T07:35:21.417Z,100558.42
2019-01-14T07:37:51.653Z,100564.02
2019-01-14T07:40:21.026Z,100567.52
2019-01-14T07:42:50.293Z,100564.33
2019-01-14T07:45:20.609Z,100574.09
2019-01-14T07:47:49.864Z,100583.59
2019-01-14T07:50:19.356Z,100592.33
2019-01-14T07:52:48.759Z,100603.20
2019-01-14T07:55:18.126Z,100611.27
2019-01-14T07:57:47.439Z,100625.81
2019-01-14T08:00:21.879Z,100614.50
2019-01-14T08:02:51.207Z,100633.28
2019-01-14T08:05:20.523Z,100632.85
2019-01-14T08:07:49.945Z,100635.20
2019-01-14T08:10:19.176Z,100640.91
2019-01-14T08:12:48.450Z,100643.22
2019-01-14T08:15:19.231Z,100642.64
2019-01-14T08:17:48.599Z,100649.70
2019-01-14T08:20:17.842Z,100653.92
2019-01-14T08:22:47.140Z,100660.02
2019-01-14T08:25:18.355Z,100662.95
2019-01-14T08:27:47.596Z,100675.72
2019-01-14T08:30:19.067Z,100667.25
2019-01-14T08:32:49.372Z,100676.05
2019-01-14T08:35:18.772Z,100672.85
2019-01-14T08:37:48.094Z,100679.68
2019-01-14T08:40:18.295Z,100685.61
2019-01-14T08:42:47.607Z,100690.20
2019-01-14T08:45:16.950Z,100694.80
2019-01-14T08:47:46.185Z,100705.52
2019-01-14T08:50:17.495Z,100709.43
2019-01-14T08:52:47.709Z,100715.86
2019-01-14T08:55:16.949Z,100716.75
2019-01-14T08:57:46.299Z,100720.73
2019-01-14T09:00:17.699Z,100721.95
2019-01-14T09:02:47.019Z,100723.78
2019-01-14T09:05:16.436Z,100721.48
2019-01-14T09:07:45.764Z,100725.00
2019-01-14T09:10:17.927Z,100728.52
2019-01-14T09:12:47.171Z,100736.45
2019-01-14T09:15:18.008Z,100737.20
2019-01-14T09:17:47.724Z,100738.28
2019-01-14T09:20:18.911Z,100751.63
2019-01-14T09:22:48.339Z,100748.34
2019-01-14T09:25:17.724Z,100758.06
2019-01-14T09:27:47.062Z,100756.53
2019-01-14T09:30:19.468Z,100764.59
2019-01-14T09:32:48.725Z,100761.02
2019-01-14T09:35:18.142Z,100758.06
2019-01-14T09:37:47.547Z,100763.67
2019-01-14T09:40:18.821Z,100762.11
2019-01-14T09:42:49.178Z,100767.16
2019-01-14T09:45:18.431Z,100770.45
2019-01-14T09:47:47.772Z,100767.54
2019-01-14T09:50:17.065Z,100769.89
2019-01-14T09:52:47.309Z,100776.98
2019-01-14T09:55:18.677Z,100786.55
2019-01-14T09:57:48.023Z,100785.61
2019-01-14T10:00:17.325Z,100785.21
2019-01-14T10:02:46.629Z,100790.75
2019-01-14T10:05:17.336Z,100799.22
2019-01-14T10:07:47.506Z,100806.02
2019-01-14T10:10:18.017Z,100803.75
2019-01-14T10:12:47.423Z,100805.24
2019-01-14T10:15:19.467Z,100807.42
2019-01-14T10:17:50.847Z,100820.21
2019-01-14T10:20:20.100Z,100818.35
2019-01-14T10:22:49.332Z,100828.98
2019-01-14T10:25:18.561Z,100833.98
2019-01-14T10:27:47.785Z,100836.27
2019-01-14T10:30:19.131Z,100832.64
2019-01-14T10:32:48.367Z,100839.31
2019-01-14T10:35:17.589Z,100847.42
2019-01-14T10:37:46.903Z,100849.48
2019-01-14T10:40:16.898Z,100852.31
2019-01-14T10:42:46.128Z,100858.30
2019-01-14T10:45:17.796Z,100866.41
2019-01-14T10:47:49.235Z,100857.14
2019-01-14T10:50:18.832Z,100858.88
2019-01-14T10:52:48.061Z,100864.40
2019-01-14T10:55:17.466Z,100863.22
2019-01-14T10:57:46.821Z,100861.08
2019-01-14T11:00:18.854Z,100865.05
2019-01-14T11:02:48.360Z,100863.46
2019-01-14T11:05:22.243Z,100863.09
2019-01-14T11:07:52.516Z,100872.01
2019-01-14T11:10:21.732Z,100872.34
2019-01-14T11:12:51.106Z,100876.70
2019-01-14T11:15:21.596Z,100880.11
2019-01-14T11:17:50.910Z,100868.80
2019-01-14T11:20:25.934Z,100868.52
2019-01-14T11:22:55.336Z,100874.69
2019-01-14T11:25:24.573Z,100885.13
2019-01-14T11:27:53.959Z,100884.05
2019-01-14T11:30:26.246Z,100889.28
2019-01-14T11:32:55.485Z,100890.31
2019-01-14T11:35:24.800Z,100897.87
2019-01-14T11:37:54.993Z,100896.64
2019-01-14T11:40:30.169Z,100906.69
2019-01-14T11:43:01.492Z,100903.94
2019-01-14T11:45:30.808Z,100902.99
2019-01-14T11:48:01.002Z,100903.93
2019-01-14T11:50:30.261Z,100917.41
2019-01-14T11:52:59.510Z,100917.00
2019-01-14T11:55:28.755Z,100911.11
2019-01-14T11:57:58.933Z,100907.72
2019-01-14T12:00:28.225Z,100906.28
2019-01-14T12:02:57.610Z,100913.01
2019-01-14T12:05:26.852Z,100903.47
2019-01-14T12:07:57.052Z,100907.59
2019-01-14T12:10:26.302Z,100908.70
2019-01-14T12:12:55.557Z,100904.22
2019-01-14T12:15:26.372Z,100914.16
2019-01-14T12:17:55.585Z,100922.65
2019-01-14T12:20:24.817Z,100924.75
2019-01-14T12:22:54.034Z,100934.56
2019-01-14T12:25:23.265Z,100932.45
2019-01-14T12:27:52.536Z,100924.59
2019-01-14T12:30:33.561Z,100929.98
2019-01-14T12:33:03.951Z,100930.94
2019-01-14T12:35:34.208Z,100958.63
2019-01-14T12:38:03.465Z,100959.54
2019-01-14T12:40:32.775Z,100966.02
2019-01-14T12:43:02.018Z,100968.36
2019-01-14T12:45:31.261Z,100991.24
2019-01-14T12:48:00.508Z,100994.90
2019-01-14T12:50:29.827Z,100983.56
2019-01-14T12:52:59.063Z,100977.62
2019-01-14T12:55:28.296Z,100981.00
2019-01-14T12:57:57.620Z,100976.48
2019-01-14T13:00:28.598Z,100983.45
2019-01-14T13:02:58.757Z,100984.23
2019-01-14T13:05:28.761Z,100992.83
2019-01-14T13:07:57.996Z,100999.53
2019-01-14T13:10:27.232Z,101005.79
2019-01-14T13:12:56.472Z,100995.05
2019-01-14T13:15:26.745Z,100999.72
2019-01-14T13:17:56.031Z,101002.80
2019-01-14T13:20:25.362Z,101002.72
2019-01-14T13:22:54.609Z,100992.23
2019-01-14T13:25:23.906Z,100991.82
2019-01-14T13:27:53.163Z,100994.70
2019-01-14T13:30:24.921Z,100982.16
2019-01-14T13:32:54.231Z,100987.63
2019-01-14T13:35:23.520Z,100983.66
2019-01-14T13:37:52.850Z,100983.66
2019-01-14T13:40:23.123Z,100985.69
2019-01-14T13:42:52.359Z,100997.66
2019-01-14T13:45:22.843Z,101005.55
2019-01-14T13:47:52.172Z,101012.42
2019-01-14T13:50:23.441Z,101023.44
2019-01-14T13:52:52.759Z,101029.82
2019-01-14T13:55:22.350Z,101030.88
2019-01-14T13:57:52.440Z,101034.63
2019-01-14T14:00:25.693Z,101032.66
2019-01-14T14:02:55.021Z,101030.71
2019-01-14T14:05:24.330Z,101036.49
2019-01-14T14:07:53.630Z,101028.72
2019-01-14T14:10:25.121Z,101030.95
2019-01-14T14:12:55.415Z,101032.66
2019-01-14T14:15:24.843Z,101047.48
2019-01-14T14:17:54.138Z,101060.73
2019-01-14T14:20:23.398Z,101059.98
2019-01-14T14:22:52.619Z,101069.27
2019-01-14T14:25:21.845Z,101077.36
2019-01-14T14:27:51.068Z,101084.81
2019-01-14T14:30:27.516Z,101083.59
2019-01-14T14:32:56.823Z,101096.75
2019-01-14T14:35:26.073Z,101100.89
2019-01-14T14:38:00.926Z,101104.83
2019-01-14T14:40:26.432Z,101111.36
2019-01-14T14:42:55.674Z,101107.13
2019-01-14T14:45:24.912Z,101120.75
2019-01-14T14:47:56.127Z,101110.51
2019-01-14T14:50:25.398Z,101116.91
2019-01-14T14:52:54.633Z,101114.05
2019-01-14T14:55:23.890Z,101119.25
2019-01-14T14:57:53.138Z,101130.73
2019-01-14T15:00:23.793Z,101116.99
2019-01-14T15:02:53.972Z,101130.88
2019-01-14T15:05:23.279Z,101126.27
2019-01-14T15:07:52.507Z,101137.17
2019-01-14T15:10:22.029Z,101140.39
2019-01-14T15:12:51.351Z,101137.64
2019-01-14T15:15:22.202Z,101151.03
2019-01-14T15:17:51.446Z,101160.73
2019-01-14T15:20:22.011Z,101162.16
2019-01-14T15:22:51.273Z,101172.27
2019-01-14T15:25:20.571Z,101175.84
2019-01-14T15:27:49.781Z,101179.80
2019-01-14T15:30:24.539Z,101187.80
2019-01-14T15:32:53.804Z,101190.23
2019-01-14T15:35:23.029Z,101196.34
2019-01-14T15:37:52.282Z,101194.38
2019-01-14T15:40:21.756Z,101211.27
2019-01-14T15:42:51.913Z,101208.12
2019-01-14T15:45:25.154Z,101212.37
2019-01-14T15:47:54.572Z,101220.17
2019-01-14T15:50:23.805Z,101228.19
2019-01-14T15:52:53.038Z,101229.70
2019-01-14T15:55:24.194Z,101231.39
2019-01-14T15:57:53.442Z,101242.31
2019-01-14T16:00:22.672Z,101240.88
2019-01-14T16:02:51.977Z,101238.39
2019-01-14T16:05:21.206Z,101240.61
2019-01-14T16:07:50.454Z,101241.98
2019-01-14T16:10:21.433Z,101252.28
2019-01-14T16:12:50.652Z,101251.58
2019-01-14T16:15:19.979Z,101244.55
2019-01-14T16:17:49.243Z,101252.23
2019-01-14T16:20:21.536Z,101248.25
2019-01-14T16:22:50.782Z,101248.84
2019-01-14T16:25:20.042Z,101248.10
2019-01-14T16:27:49.342Z,101253.55
2019-01-14T16:30:20.726Z,101257.52
2019-01-14T16:32:49.974Z,101257.97
2019-01-14T16:35:19.310Z,101253.77
2019-01-14T16:37:48.532Z,101256.83
2019-01-14T16:40:18.484Z,101260.69
2019-01-14T16:42:48.840Z,101266.75
2019-01-14T16:45:20.024Z,101269.67
2019-01-14T16:47:49.271Z,101276.60
2019-01-14T16:50:18.587Z,101273.74
2019-01-14T16:52:47.946Z,101279.24
2019-01-14T16:55:18.778Z,101288.77
2019-01-14T16:57:48.030Z,101291.14
2019-01-14T17:00:18.304Z,101297.83
2019-01-14T17:02:47.535Z,101294.26
2019-01-14T17:05:16.827Z,101294.97
2019-01-14T17:07:46.147Z,101298.88
2019-01-14T17:10:16.047Z,101302.52
2019-01-14T17:12:45.264Z,101302.47
2019-01-14T17:15:14.570Z,101304.04
2019-01-14T17:17:43.838Z,101304.19
2019-01-14T17:20:16.043Z,101307.09
2019-01-14T17:22:45.285Z,101307.45
2019-01-14T17:25:14.778Z,101310.06
2019-01-14T17:27:45.212Z,101311.19
2019-01-14T17:30:16.150Z,101317.67
2019-01-14T17:32:45.474Z,101318.01
2019-01-14T17:35:15.258Z,101325.98
2019-01-14T17:37:44.647Z,101317.48
2019-01-14T17:40:17.994Z,101322.23
2019-01-14T17:42:47.235Z,101317.19
2019-01-14T17:45:16.484Z,101326.89
2019-01-14T17:47:46.778Z,101326.22
2019-01-14T17:50:18.361Z,101329.13
2019-01-14T17:52:47.698Z,101333.20
2019-01-14T17:55:17.903Z,101337.20
2019-01-14T17:57:47.132Z,101337.87
2019-01-14T18:00:23.544Z,101340.15
2019-01-14T18:02:52.787Z,101350.78
2019-01-14T18:05:22.053Z,101359.53
2019-01-14T18:07:52.203Z,101360.85
2019-01-14T18:10:21.444Z,101363.27
2019-01-14T18:12:50.689Z,101362.16
2019-01-14T18:15:19.935Z,101364.23
2019-01-14T18:17:49.195Z,101367.55
2019-01-14T18:20:18.885Z,101382.00
2019-01-14T18:22:50.021Z,101382.53
2019-01-14T18:25:21.191Z,101380.39
2019-01-14T18:27:50.525Z,101385.31
2019-01-14T18:30:20.593Z,101388.12
2019-01-14T18:32:49.922Z,101383.25
2019-01-14T18:35:20.119Z,101396.38
2019-01-14T18:37:49.426Z,101399.67
2019-01-14T18:40:20.703Z,101399.45
2019-01-14T18:42:51.941Z,101395.83
2019-01-14T18:45:21.178Z,101400.45
2019-01-14T18:47:50.491Z,101410.51
2019-01-14T18:50:21.310Z,101412.09
2019-01-14T18:52:50.542Z,101417.73
2019-01-14T18:55:19.883Z,101414.48
2019-01-14T18:57:49.123Z,101418.64
2019-01-14T19:00:20.113Z,101423.87
2019-01-14T19:02:49.357Z,101431.70
2019-01-14T19:05:20.189Z,101435.57
2019-01-14T19:07:49.610Z,101428.74
2019-01-14T19:10:19.714Z,101440.83
2019-01-14T19:12:48.962Z,101446.00
2019-01-14T19:15:19.533Z,101449.45
2019-01-14T19:17:49.172Z,101450.27
2019-01-14T19:20:24.407Z,101457.25
2019-01-14T19:22:54.619Z,101456.95
2019-01-14T19:25:23.925Z,101460.16
2019-01-14T19:27:53.156Z,101462.23
2019-01-14T19:30:23.444Z,101459.70
2019-01-14T19:32:52.667Z,101461.00
2019-01-14T19:35:21.922Z,101465.77
2019-01-14T19:37:51.229Z,101465.70
2019-01-14T19:40:21.053Z,101466.91
2019-01-14T19:42:50.343Z,101464.62
2019-01-14T19:45:20.954Z,101470.30
2019-01-14T19:47:50.254Z,101473.16
2019-01-14T19:50:21.449Z,101466.26
2019-01-14T19:52:50.731Z,101469.63
2019-01-14T19:55:20.059Z,101470.59
2019-01-14T19:57:50.311Z,101471.91
2019-01-14T20:00:22.646Z,101475.77
2019-01-14T20:02:51.970Z,101483.59
2019-01-14T20:05:21.217Z,101482.20
2019-01-14T20:07:51.065Z,101483.69
2019-01-14T20:10:21.292Z,101488.65
2019-01-14T20:12:53.363Z,101490.24
2019-01-14T20:15:23.570Z,101489.61
2019-01-14T20:17:53.816Z,101491.88
2019-01-14T20:20:24.015Z,101486.41
2019-01-14T20:22:53.257Z,101489.79
2019-01-14T20:25:22.488Z,101489.02
2019-01-14T20:27:52.034Z,101495.36
2019-01-14T20:30:22.330Z,101495.86
2019-01-14T20:32:51.654Z,101497.97
2019-01-14T20:35:20.964Z,101495.59
2019-01-14T20:37:50.288Z,101499.93
2019-01-14T20:40:19.578Z,101506.81
2019-01-14T20:42:48.856Z,101499.28
2019-01-14T20:45:18.139Z,101501.79
2019-01-14T20:47:47.518Z,101501.39
2019-01-14T20:50:18.517Z,101493.33
2019-01-14T20:52:47.761Z,101500.03
2019-01-14T20:55:17.117Z,101499.05
2019-01-14T20:57:46.397Z,101505.41
2019-01-14T21:00:18.968Z,101494.44
2019-01-14T21:02:48.253Z,101505.87
2019-01-14T21:05:18.480Z,101504.91
2019-01-14T21:07:47.723Z,101506.70
2019-01-14T21:10:17.199Z,101510.00
2019-01-14T21:12:47.450Z,101510.56
2019-01-14T21:15:16.778Z,101515.06
2019-01-14T21:17:46.056Z,101519.50
2019-01-14T21:20:20.574Z,101514.38
2019-01-14T21:22:50.915Z,101504.34
2019-01-14T21:25:20.190Z,101514.63
2019-01-14T21:27:49.431Z,101518.16
2019-01-14T21:30:23.893Z,101512.44
2019-01-14T21:32:53.135Z,101514.43
2019-01-14T21:35:22.416Z,101512.28
2019-01-14T21:37:52.102Z,101518.05
2019-01-14T21:40:21.323Z,101520.55
2019-01-14T21:42:50.570Z,101525.41
2019-01-14T21:45:19.832Z,101519.69
2019-01-14T21:47:49.215Z,101522.52
2019-01-14T21:50:19.912Z,101517.29
2019-01-14T21:52:49.153Z,101524.80
2019-01-14T21:55:21.188Z,101529.95
2019-01-14T21:57:50.504Z,101520.55
2019-01-14T22:00:22.400Z,101532.00
2019-01-14T22:02:52.648Z,101520.48
2019-01-14T22:05:22.836Z,101519.31
2019-01-14T22:07:52.072Z,101525.32
2019-01-14T22:10:23.280Z,101518.13
2019-01-14T22:12:54.560Z,101519.83
2019-01-14T22:15:23.813Z,101519.22
2019-01-14T22:17:53.223Z,101527.05
2019-01-14T22:20:24.316Z,101523.53
2019-01-14T22:22:53.617Z,101529.80
2019-01-14T22:25:23.606Z,101526.69
2019-01-14T22:27:52.962Z,101524.73
2019-01-14T22:30:25.770Z,101527.91
2019-01-14T22:32:55.009Z,101532.66
2019-01-14T22:35:24.267Z,101530.48
2019-01-14T22:37:53.496Z,101531.48
2019-01-14T22:40:23.929Z,101530.80
2019-01-14T22:42:55.138Z,101539.02
2019-01-14T22:45:24.494Z,101543.20
2019-01-14T22:47:53.743Z,101542.91
2019-01-14T22:50:23.937Z,101541.59
2019-01-14T22:52:53.184Z,101544.84
2019-01-14T22:55:22.458Z,101538.48
2019-01-14T22:57:51.723Z,101538.31
2019-01-14T23:00:38.475Z,101542.53
2019-01-14T23:03:07.719Z,101536.00
2019-01-14T23:05:37.031Z,101539.40
2019-01-14T23:08:06.296Z,101532.88
2019-01-14T23:10:35.563Z,101537.19
2019-01-14T23:13:05.753Z,101536.52
2019-01-14T23:15:34.993Z,101543.84
2019-01-14T23:18:04.439Z,101543.92
2019-01-14T23:20:33.707Z,101545.92
2019-01-14T23:23:03.124Z,101550.84
2019-01-14T23:25:33.280Z,101555.21
2019-01-14T23:28:02.516Z,101553.56
2019-01-14T23:30:31.770Z,101551.75
2019-01-14T23:33:01.012Z,101546.91
2019-01-14T23:35:30.255Z,101536.90
2019-01-14T23:37:59.483Z,101530.24
2019-01-14T23:40:28.710Z,101542.92
2019-01-14T23:42:59.068Z,101539.25
2019-01-14T23:45:28.348Z,101529.59
2019-01-14T23:47:57.605Z,101528.91
2019-01-14T23:50:26.853Z,101531.26
2019-01-14T23:52:56.101Z,101527.23
2019-01-14T23:55:25.337Z,101535.42
2019-01-14T23:57:55.553Z,101538.41
